sensor_id;sensor_type;location;lat;lon;timestamp;P1;durP1;ratioP1;P2;durP2;ratioP2
47772;SDS011;33534;51.028;13.716;2022-10-31T00:01:09;31.40;;;16.02;;
47772;SDS011;33534;51.028;13.716;2022-10-31T00:03:35;26.73;;;16.05;;
47772;SDS011;33534;51.028;13.716;2022-10-31T00:06:01;30.67;;;14.65;;
47772;SDS011;33534;51.028;13.716;2022-10-31T00:08:27;26.92;;;15.00;;
47772;SDS011;33534;51.028;13.716;2022-10-31T00:10:53;31.65;;;16.52;;
47772;SDS011;33534;51.028;13.716;2022-10-31T00:13:19;29.00;;;15.73;;
47772;SDS011;33534;51.028;13.716;2022-10-31T00:15:45;29.15;;;14.52;;
47772;SDS011;33534;51.028;13.716;2022-10-31T00:18:11;30.23;;;16.80;;
47772;SDS011;33534;51.028;13.716;2022-10-31T00:20:37;28.27;;;15.40;;
47772;SDS011;33534;51.028;13.716;2022-10-31T00:23:04;27.98;;;15.45;;
47772;SDS011;33534;51.028;13.716;2022-10-31T00:25:33;33.47;;;15.93;;
47772;SDS011;33534;51.028;13.716;2022-10-31T00:27:59;25.98;;;14.20;;
47772;SDS011;33534;51.028;13.716;2022-10-31T00:30:25;24.60;;;14.68;;
47772;SDS011;33534;51.028;13.716;2022-10-31T00:32:51;23.42;;;13.27;;
47772;SDS011;33534;51.028;13.716;2022-10-31T00:35:17;22.95;;;13.73;;
47772;SDS011;33534;51.028;13.716;2022-10-31T00:37:43;25.83;;;15.05;;
47772;SDS011;33534;51.028;13.716;2022-10-31T00:40:09;32.38;;;15.05;;
47772;SDS011;33534;51.028;13.716;2022-10-31T00:42:35;28.60;;;15.23;;
47772;SDS011;33534;51.028;13.716;2022-10-31T00:45:01;25.92;;;14.30;;
47772;SDS011;33534;51.028;13.716;2022-10-31T00:47:27;25.48;;;14.13;;
47772;SDS011;33534;51.028;13.716;2022-10-31T00:49:53;33.75;;;15.88;;
47772;SDS011;33534;51.028;13.716;2022-10-31T00:52:19;27.20;;;16.33;;
47772;SDS011;33534;51.028;13.716;2022-10-31T00:54:45;26.33;;;14.98;;
47772;SDS011;33534;51.028;13.716;2022-10-31T00:57:11;25.25;;;14.30;;
47772;SDS011;33534;51.028;13.716;2022-10-31T00:59:37;29.10;;;13.43;;
47772;SDS011;33534;51.028;13.716;2022-10-31T01:02:03;25.27;;;14.68;;
47772;SDS011;33534;51.028;13.716;2022-10-31T01:04:29;28.45;;;14.52;;
47772;SDS011;33534;51.028;13.716;2022-10-31T01:06:55;21.67;;;13.50;;
47772;SDS011;33534;51.028;13.716;2022-10-31T01:09:21;29.33;;;14.70;;
47772;SDS011;33534;51.028;13.716;2022-10-31T01:11:47;25.13;;;14.77;;
47772;SDS011;33534;51.028;13.716;2022-10-31T01:14:13;28.92;;;14.13;;
47772;SDS011;33534;51.028;13.716;2022-10-31T01:16:39;26.92;;;13.68;;
47772;SDS011;33534;51.028;13.716;2022-10-31T01:19:05;26.83;;;14.05;;
47772;SDS011;33534;51.028;13.716;2022-10-31T01:21:31;28.35;;;15.35;;
47772;SDS011;33534;51.028;13.716;2022-10-31T01:23:57;31.80;;;14.68;;
47772;SDS011;33534;51.028;13.716;2022-10-31T01:26:24;26.73;;;14.25;;
47772;SDS011;33534;51.028;13.716;2022-10-31T01:28:55;20.60;;;13.95;;
47772;SDS011;33534;51.028;13.716;2022-10-31T01:31:22;31.70;;;15.03;;
47772;SDS011;33534;51.028;13.716;2022-10-31T01:33:48;27.65;;;14.45;;
47772;SDS011;33534;51.028;13.716;2022-10-31T01:36:33;24.05;;;13.68;;
47772;SDS011;33534;51.028;13.716;2022-10-31T01:39:00;22.30;;;13.45;;
47772;SDS011;33534;51.028;13.716;2022-10-31T01:41:28;24.92;;;13.95;;
47772;SDS011;33534;51.028;13.716;2022-10-31T01:46:30;25.58;;;13.63;;
47772;SDS011;33534;51.028;13.716;2022-10-31T01:48:59;25.38;;;13.00;;
47772;SDS011;33534;51.028;13.716;2022-10-31T01:51:27;26.88;;;13.18;;
47772;SDS011;33534;51.028;13.716;2022-10-31T01:53:55;21.10;;;12.68;;
47772;SDS011;33534;51.028;13.716;2022-10-31T01:56:22;29.27;;;14.95;;
47772;SDS011;33534;51.028;13.716;2022-10-31T01:58:48;21.33;;;12.60;;
47772;SDS011;33534;51.028;13.716;2022-10-31T02:01:14;23.60;;;13.35;;
47772;SDS011;33534;51.028;13.716;2022-10-31T02:03:42;26.00;;;12.93;;
47772;SDS011;33534;51.028;13.716;2022-10-31T02:06:10;27.38;;;13.52;;
47772;SDS011;33534;51.028;13.716;2022-10-31T02:08:38;28.42;;;14.80;;
47772;SDS011;33534;51.028;13.716;2022-10-31T02:11:04;28.02;;;14.98;;
47772;SDS011;33534;51.028;13.716;2022-10-31T02:13:31;21.90;;;13.60;;
47772;SDS011;33534;51.028;13.716;2022-10-31T02:15:59;29.42;;;14.40;;
47772;SDS011;33534;51.028;13.716;2022-10-31T02:18:26;28.90;;;14.57;;
47772;SDS011;33534;51.028;13.716;2022-10-31T02:23:42;23.67;;;13.80;;
47772;SDS011;33534;51.028;13.716;2022-10-31T02:31:31;28.42;;;13.55;;
47772;SDS011;33534;51.028;13.716;2022-10-31T02:34:02;31.33;;;14.35;;
47772;SDS011;33534;51.028;13.716;2022-10-31T02:42:01;21.58;;;11.95;;
47772;SDS011;33534;51.028;13.716;2022-10-31T02:44:36;30.45;;;15.40;;
47772;SDS011;33534;51.028;13.716;2022-10-31T02:47:22;26.65;;;14.18;;
47772;SDS011;33534;51.028;13.716;2022-10-31T02:50:32;22.88;;;12.13;;
47772;SDS011;33534;51.028;13.716;2022-10-31T02:52:38;22.50;;;11.68;;
47772;SDS011;33534;51.028;13.716;2022-10-31T02:57:36;22.17;;;11.75;;
47772;SDS011;33534;51.028;13.716;2022-10-31T03:00:04;23.88;;;12.20;;
47772;SDS011;33534;51.028;13.716;2022-10-31T03:02:35;22.92;;;11.70;;
47772;SDS011;33534;51.028;13.716;2022-10-31T03:15:40;26.63;;;14.45;;
47772;SDS011;33534;51.028;13.716;2022-10-31T03:18:11;27.63;;;13.43;;
47772;SDS011;33534;51.028;13.716;2022-10-31T03:20:44;22.85;;;11.98;;
47772;SDS011;33534;51.028;13.716;2022-10-31T03:23:13;22.77;;;11.68;;
47772;SDS011;33534;51.028;13.716;2022-10-31T03:25:40;30.23;;;13.18;;
47772;SDS011;33534;51.028;13.716;2022-10-31T03:28:07;25.40;;;13.80;;
47772;SDS011;33534;51.028;13.716;2022-10-31T03:30:35;18.70;;;12.40;;
47772;SDS011;33534;51.028;13.716;2022-10-31T03:33:03;24.77;;;12.05;;
47772;SDS011;33534;51.028;13.716;2022-10-31T03:35:30;32.85;;;12.75;;
47772;SDS011;33534;51.028;13.716;2022-10-31T03:37:57;28.77;;;13.18;;
47772;SDS011;33534;51.028;13.716;2022-10-31T03:40:26;31.70;;;13.05;;
47772;SDS011;33534;51.028;13.716;2022-10-31T03:42:54;30.02;;;13.88;;
47772;SDS011;33534;51.028;13.716;2022-10-31T03:45:28;22.52;;;13.00;;
47772;SDS011;33534;51.028;13.716;2022-10-31T03:47:54;24.38;;;12.70;;
47772;SDS011;33534;51.028;13.716;2022-10-31T03:50:20;27.42;;;12.68;;
47772;SDS011;33534;51.028;13.716;2022-10-31T03:52:53;19.75;;;10.90;;
47772;SDS011;33534;51.028;13.716;2022-10-31T03:55:25;24.58;;;12.30;;
47772;SDS011;33534;51.028;13.716;2022-10-31T03:57:57;24.30;;;12.70;;
47772;SDS011;33534;51.028;13.716;2022-10-31T04:00:24;25.15;;;12.50;;
47772;SDS011;33534;51.028;13.716;2022-10-31T04:02:52;22.80;;;12.98;;
47772;SDS011;33534;51.028;13.716;2022-10-31T04:05:19;23.63;;;11.88;;
47772;SDS011;33534;51.028;13.716;2022-10-31T04:07:46;30.25;;;12.45;;
47772;SDS011;33534;51.028;13.716;2022-10-31T04:10:13;21.23;;;11.82;;
47772;SDS011;33534;51.028;13.716;2022-10-31T04:12:40;21.17;;;12.45;;
47772;SDS011;33534;51.028;13.716;2022-10-31T04:15:08;22.10;;;11.63;;
47772;SDS011;33534;51.028;13.716;2022-10-31T04:17:36;20.63;;;11.85;;
47772;SDS011;33534;51.028;13.716;2022-10-31T04:20:03;18.75;;;11.65;;
47772;SDS011;33534;51.028;13.716;2022-10-31T04:22:29;24.70;;;12.23;;
47772;SDS011;33534;51.028;13.716;2022-10-31T04:24:55;24.50;;;11.15;;
47772;SDS011;33534;51.028;13.716;2022-10-31T04:27:21;24.75;;;11.13;;
47772;SDS011;33534;51.028;13.716;2022-10-31T04:29:47;25.27;;;12.75;;
47772;SDS011;33534;51.028;13.716;2022-10-31T04:32:13;26.27;;;12.05;;
47772;SDS011;33534;51.028;13.716;2022-10-31T04:34:39;24.52;;;12.25;;
47772;SDS011;33534;51.028;13.716;2022-10-31T04:37:05;25.25;;;12.15;;
47772;SDS011;33534;51.028;13.716;2022-10-31T04:39:31;23.58;;;12.30;;
47772;SDS011;33534;51.028;13.716;2022-10-31T04:41:57;20.95;;;11.27;;
47772;SDS011;33534;51.028;13.716;2022-10-31T04:46:52;24.38;;;11.30;;
47772;SDS011;33534;51.028;13.716;2022-10-31T04:49:18;19.10;;;10.10;;
47772;SDS011;33534;51.028;13.716;2022-10-31T04:51:44;17.40;;;9.50;;
47772;SDS011;33534;51.028;13.716;2022-10-31T04:54:10;25.85;;;10.43;;
47772;SDS011;33534;51.028;13.716;2022-10-31T04:56:36;17.02;;;8.82;;
47772;SDS011;33534;51.028;13.716;2022-10-31T04:59:02;18.00;;;8.90;;
47772;SDS011;33534;51.028;13.716;2022-10-31T05:01:28;17.33;;;8.77;;
47772;SDS011;33534;51.028;13.716;2022-10-31T05:03:54;16.13;;;8.93;;
47772;SDS011;33534;51.028;13.716;2022-10-31T05:06:20;14.68;;;8.63;;
47772;SDS011;33534;51.028;13.716;2022-10-31T05:08:46;18.08;;;9.60;;
47772;SDS011;33534;51.028;13.716;2022-10-31T05:11:12;19.27;;;9.43;;
47772;SDS011;33534;51.028;13.716;2022-10-31T05:13:38;22.38;;;8.77;;
47772;SDS011;33534;51.028;13.716;2022-10-31T05:16:04;22.15;;;9.80;;
47772;SDS011;33534;51.028;13.716;2022-10-31T05:18:30;23.30;;;8.90;;
47772;SDS011;33534;51.028;13.716;2022-10-31T05:20:56;19.17;;;9.05;;
47772;SDS011;33534;51.028;13.716;2022-10-31T05:23:22;17.63;;;8.77;;
47772;SDS011;33534;51.028;13.716;2022-10-31T05:25:48;14.55;;;8.60;;
47772;SDS011;33534;51.028;13.716;2022-10-31T05:28:14;17.27;;;9.07;;
47772;SDS011;33534;51.028;13.716;2022-10-31T05:30:40;25.02;;;10.85;;
47772;SDS011;33534;51.028;13.716;2022-10-31T05:33:06;24.98;;;12.98;;
47772;SDS011;33534;51.028;13.716;2022-10-31T05:35:32;19.83;;;12.43;;
47772;SDS011;33534;51.028;13.716;2022-10-31T05:37:59;16.40;;;10.52;;
47772;SDS011;33534;51.028;13.716;2022-10-31T05:40:25;21.20;;;12.02;;
47772;SDS011;33534;51.028;13.716;2022-10-31T05:42:52;18.25;;;12.23;;
47772;SDS011;33534;51.028;13.716;2022-10-31T05:45:18;19.60;;;10.93;;
47772;SDS011;33534;51.028;13.716;2022-10-31T05:47:55;24.65;;;10.88;;
47772;SDS011;33534;51.028;13.716;2022-10-31T05:50:21;14.75;;;9.55;;
47772;SDS011;33534;51.028;13.716;2022-10-31T05:52:57;19.30;;;12.00;;
47772;SDS011;33534;51.028;13.716;2022-10-31T05:55:23;25.73;;;11.93;;
47772;SDS011;33534;51.028;13.716;2022-10-31T05:57:52;21.98;;;11.55;;
47772;SDS011;33534;51.028;13.716;2022-10-31T06:00:19;22.33;;;11.15;;
47772;SDS011;33534;51.028;13.716;2022-10-31T06:02:45;17.95;;;10.10;;
47772;SDS011;33534;51.028;13.716;2022-10-31T06:05:14;18.95;;;10.43;;
47772;SDS011;33534;51.028;13.716;2022-10-31T06:07:41;23.75;;;13.18;;
47772;SDS011;33534;51.028;13.716;2022-10-31T06:10:07;18.10;;;9.68;;
47772;SDS011;33534;51.028;13.716;2022-10-31T06:12:36;15.07;;;8.90;;
47772;SDS011;33534;51.028;13.716;2022-10-31T06:15:03;14.82;;;8.43;;
47772;SDS011;33534;51.028;13.716;2022-10-31T06:17:30;15.10;;;9.02;;
47772;SDS011;33534;51.028;13.716;2022-10-31T06:19:56;17.25;;;9.82;;
47772;SDS011;33534;51.028;13.716;2022-10-31T06:22:22;22.15;;;10.80;;
47772;SDS011;33534;51.028;13.716;2022-10-31T06:24:48;15.73;;;9.30;;
47772;SDS011;33534;51.028;13.716;2022-10-31T06:27:16;18.23;;;8.57;;
47772;SDS011;33534;51.028;13.716;2022-10-31T06:29:43;12.27;;;7.85;;
47772;SDS011;33534;51.028;13.716;2022-10-31T06:32:10;17.05;;;6.80;;
47772;SDS011;33534;51.028;13.716;2022-10-31T06:34:37;14.45;;;7.03;;
47772;SDS011;33534;51.028;13.716;2022-10-31T06:37:09;11.75;;;6.75;;
47772;SDS011;33534;51.028;13.716;2022-10-31T06:39:41;11.00;;;6.22;;
47772;SDS011;33534;51.028;13.716;2022-10-31T06:42:10;12.00;;;6.13;;
47772;SDS011;33534;51.028;13.716;2022-10-31T06:44:38;8.95;;;5.53;;
47772;SDS011;33534;51.028;13.716;2022-10-31T06:47:05;11.57;;;5.53;;
47772;SDS011;33534;51.028;13.716;2022-10-31T06:49:31;12.75;;;6.57;;
47772;SDS011;33534;51.028;13.716;2022-10-31T06:51:57;17.05;;;6.80;;
47772;SDS011;33534;51.028;13.716;2022-10-31T06:54:26;12.85;;;5.40;;
47772;SDS011;33534;51.028;13.716;2022-10-31T06:56:52;10.30;;;6.18;;
47772;SDS011;33534;51.028;13.716;2022-10-31T06:59:20;12.73;;;6.55;;
47772;SDS011;33534;51.028;13.716;2022-10-31T07:01:46;11.10;;;5.00;;
47772;SDS011;33534;51.028;13.716;2022-10-31T07:04:18;10.30;;;5.63;;
47772;SDS011;33534;51.028;13.716;2022-10-31T07:06:44;11.68;;;6.30;;
47772;SDS011;33534;51.028;13.716;2022-10-31T07:09:12;13.23;;;6.45;;
47772;SDS011;33534;51.028;13.716;2022-10-31T07:11:46;12.98;;;6.00;;
47772;SDS011;33534;51.028;13.716;2022-10-31T07:14:12;12.60;;;5.88;;
47772;SDS011;33534;51.028;13.716;2022-10-31T07:16:41;11.15;;;5.70;;
47772;SDS011;33534;51.028;13.716;2022-10-31T07:19:09;12.00;;;6.10;;
47772;SDS011;33534;51.028;13.716;2022-10-31T07:21:36;11.07;;;5.65;;
47772;SDS011;33534;51.028;13.716;2022-10-31T07:24:06;13.38;;;6.25;;
47772;SDS011;33534;51.028;13.716;2022-10-31T07:26:36;10.82;;;6.10;;
47772;SDS011;33534;51.028;13.716;2022-10-31T07:29:15;12.32;;;5.47;;
47772;SDS011;33534;51.028;13.716;2022-10-31T07:31:44;10.57;;;6.15;;
47772;SDS011;33534;51.028;13.716;2022-10-31T07:34:13;12.45;;;5.93;;
47772;SDS011;33534;51.028;13.716;2022-10-31T07:36:39;15.65;;;5.85;;
47772;SDS011;33534;51.028;13.716;2022-10-31T07:39:08;14.98;;;5.72;;
47772;SDS011;33534;51.028;13.716;2022-10-31T07:41:34;13.30;;;5.72;;
47772;SDS011;33534;51.028;13.716;2022-10-31T07:44:08;16.77;;;5.97;;
47772;SDS011;33534;51.028;13.716;2022-10-31T07:46:34;11.68;;;6.32;;
47772;SDS011;33534;51.028;13.716;2022-10-31T07:49:00;14.77;;;5.97;;
47772;SDS011;33534;51.028;13.716;2022-10-31T07:51:27;13.35;;;5.68;;
47772;SDS011;33534;51.028;13.716;2022-10-31T07:53:55;14.43;;;6.30;;
47772;SDS011;33534;51.028;13.716;2022-10-31T07:56:41;11.25;;;5.22;;
47772;SDS011;33534;51.028;13.716;2022-10-31T07:59:37;11.63;;;5.40;;
47772;SDS011;33534;51.028;13.716;2022-10-31T08:02:32;9.38;;;5.93;;
47772;SDS011;33534;51.028;13.716;2022-10-31T08:05:00;9.48;;;5.10;;
47772;SDS011;33534;51.028;13.716;2022-10-31T08:07:36;12.43;;;6.30;;
47772;SDS011;33534;51.028;13.716;2022-10-31T08:10:09;10.05;;;5.18;;
47772;SDS011;33534;51.028;13.716;2022-10-31T08:12:40;9.68;;;5.05;;
47772;SDS011;33534;51.028;13.716;2022-10-31T08:15:29;12.82;;;5.80;;
47772;SDS011;33534;51.028;13.716;2022-10-31T08:18:39;8.35;;;5.70;;
47772;SDS011;33534;51.028;13.716;2022-10-31T08:21:11;12.13;;;6.55;;
47772;SDS011;33534;51.028;13.716;2022-10-31T08:24:13;11.38;;;6.05;;
47772;SDS011;33534;51.028;13.716;2022-10-31T08:26:52;9.18;;;5.32;;
47772;SDS011;33534;51.028;13.716;2022-10-31T08:35:54;9.63;;;6.40;;
47772;SDS011;33534;51.028;13.716;2022-10-31T08:38:23;11.52;;;5.78;;
47772;SDS011;33534;51.028;13.716;2022-10-31T08:40:55;11.75;;;6.15;;
47772;SDS011;33534;51.028;13.716;2022-10-31T08:43:36;9.40;;;5.57;;
47772;SDS011;33534;51.028;13.716;2022-10-31T08:46:05;9.93;;;5.82;;
47772;SDS011;33534;51.028;13.716;2022-10-31T08:51:42;8.70;;;5.60;;
47772;SDS011;33534;51.028;13.716;2022-10-31T08:54:30;9.90;;;6.30;;
47772;SDS011;33534;51.028;13.716;2022-10-31T08:56:55;10.73;;;5.72;;
47772;SDS011;33534;51.028;13.716;2022-10-31T08:59:21;10.60;;;5.78;;
47772;SDS011;33534;51.028;13.716;2022-10-31T09:01:47;14.32;;;5.57;;
47772;SDS011;33534;51.028;13.716;2022-10-31T09:09:46;9.27;;;5.45;;
47772;SDS011;33534;51.028;13.716;2022-10-31T09:12:16;8.70;;;6.13;;
47772;SDS011;33534;51.028;13.716;2022-10-31T09:14:42;11.63;;;5.80;;
47772;SDS011;33534;51.028;13.716;2022-10-31T09:17:08;13.32;;;5.45;;
47772;SDS011;33534;51.028;13.716;2022-10-31T09:19:34;10.20;;;5.68;;
47772;SDS011;33534;51.028;13.716;2022-10-31T09:22:01;9.55;;;5.53;;
47772;SDS011;33534;51.028;13.716;2022-10-31T09:24:29;10.45;;;5.70;;
47772;SDS011;33534;51.028;13.716;2022-10-31T09:33:12;11.40;;;5.20;;
47772;SDS011;33534;51.028;13.716;2022-10-31T09:38:37;11.88;;;5.97;;
47772;SDS011;33534;51.028;13.716;2022-10-31T09:44:07;9.07;;;5.35;;
47772;SDS011;33534;51.028;13.716;2022-10-31T09:49:20;7.95;;;5.00;;
47772;SDS011;33534;51.028;13.716;2022-10-31T09:52:34;11.07;;;5.55;;
47772;SDS011;33534;51.028;13.716;2022-10-31T09:57:27;9.23;;;4.15;;
47772;SDS011;33534;51.028;13.716;2022-10-31T09:59:54;8.93;;;4.75;;
47772;SDS011;33534;51.028;13.716;2022-10-31T10:02:25;9.93;;;5.38;;
47772;SDS011;33534;51.028;13.716;2022-10-31T10:05:03;16.30;;;5.72;;
47772;SDS011;33534;51.028;13.716;2022-10-31T10:13:16;9.23;;;4.95;;
47772;SDS011;33534;51.028;13.716;2022-10-31T10:29:26;12.27;;;6.03;;
47772;SDS011;33534;51.028;13.716;2022-10-31T10:31:54;10.40;;;5.75;;
47772;SDS011;33534;51.028;13.716;2022-10-31T10:34:22;12.07;;;5.68;;
47772;SDS011;33534;51.028;13.716;2022-10-31T10:36:56;13.43;;;5.40;;
47772;SDS011;33534;51.028;13.716;2022-10-31T10:39:41;10.13;;;6.05;;
47772;SDS011;33534;51.028;13.716;2022-10-31T10:42:10;10.65;;;5.70;;
47772;SDS011;33534;51.028;13.716;2022-10-31T10:44:56;12.52;;;6.30;;
47772;SDS011;33534;51.028;13.716;2022-10-31T10:47:42;11.18;;;6.00;;
47772;SDS011;33534;51.028;13.716;2022-10-31T10:52:44;12.88;;;5.85;;
47772;SDS011;33534;51.028;13.716;2022-10-31T10:55:25;12.77;;;5.50;;
47772;SDS011;33534;51.028;13.716;2022-10-31T10:58:00;12.98;;;6.28;;
47772;SDS011;33534;51.028;13.716;2022-10-31T11:02:53;13.82;;;6.60;;
47772;SDS011;33534;51.028;13.716;2022-10-31T11:08:04;14.25;;;5.72;;
47772;SDS011;33534;51.028;13.716;2022-10-31T11:10:30;15.02;;;6.32;;
47772;SDS011;33534;51.028;13.716;2022-10-31T11:13:04;12.73;;;5.90;;
47772;SDS011;33534;51.028;13.716;2022-10-31T11:15:35;12.90;;;6.10;;
47772;SDS011;33534;51.028;13.716;2022-10-31T11:18:02;14.60;;;6.90;;
47772;SDS011;33534;51.028;13.716;2022-10-31T11:20:30;15.07;;;7.07;;
47772;SDS011;33534;51.028;13.716;2022-10-31T11:23:00;11.73;;;6.43;;
47772;SDS011;33534;51.028;13.716;2022-10-31T11:25:27;15.55;;;6.93;;
47772;SDS011;33534;51.028;13.716;2022-10-31T11:28:03;18.88;;;7.55;;
47772;SDS011;33534;51.028;13.716;2022-10-31T11:30:30;17.20;;;8.45;;
47772;SDS011;33534;51.028;13.716;2022-10-31T11:32:56;14.95;;;8.15;;
47772;SDS011;33534;51.028;13.716;2022-10-31T11:35:22;15.75;;;7.90;;
47772;SDS011;33534;51.028;13.716;2022-10-31T11:37:50;18.77;;;8.48;;
47772;SDS011;33534;51.028;13.716;2022-10-31T11:40:22;14.85;;;8.48;;
47772;SDS011;33534;51.028;13.716;2022-10-31T11:42:49;15.90;;;7.72;;
47772;SDS011;33534;51.028;13.716;2022-10-31T11:45:17;18.83;;;8.90;;
47772;SDS011;33534;51.028;13.716;2022-10-31T11:47:52;18.05;;;9.35;;
47772;SDS011;33534;51.028;13.716;2022-10-31T11:50:41;20.08;;;8.52;;
47772;SDS011;33534;51.028;13.716;2022-10-31T11:53:14;16.20;;;7.88;;
47772;SDS011;33534;51.028;13.716;2022-10-31T11:55:45;21.13;;;7.63;;
47772;SDS011;33534;51.028;13.716;2022-10-31T11:58:24;20.88;;;8.68;;
47772;SDS011;33534;51.028;13.716;2022-10-31T12:00:54;18.73;;;9.10;;
47772;SDS011;33534;51.028;13.716;2022-10-31T12:06:38;14.55;;;7.57;;
47772;SDS011;33534;51.028;13.716;2022-10-31T12:19:48;11.60;;;6.63;;
47772;SDS011;33534;51.028;13.716;2022-10-31T12:25:18;15.07;;;6.93;;
47772;SDS011;33534;51.028;13.716;2022-10-31T12:30:17;19.10;;;6.43;;
47772;SDS011;33534;51.028;13.716;2022-10-31T12:33:01;17.65;;;6.95;;
47772;SDS011;33534;51.028;13.716;2022-10-31T12:38:17;14.15;;;7.45;;
47772;SDS011;33534;51.028;13.716;2022-10-31T12:45:59;18.13;;;6.10;;
47772;SDS011;33534;51.028;13.716;2022-10-31T12:48:33;14.27;;;6.40;;
47772;SDS011;33534;51.028;13.716;2022-10-31T12:58:45;19.63;;;5.68;;
47772;SDS011;33534;51.028;13.716;2022-10-31T13:01:15;18.25;;;6.82;;
47772;SDS011;33534;51.028;13.716;2022-10-31T13:06:16;13.43;;;6.50;;
47772;SDS011;33534;51.028;13.716;2022-10-31T13:08:45;14.02;;;6.32;;
47772;SDS011;33534;51.028;13.716;2022-10-31T13:19:04;12.63;;;6.47;;
47772;SDS011;33534;51.028;13.716;2022-10-31T13:21:48;12.93;;;6.45;;
47772;SDS011;33534;51.028;13.716;2022-10-31T13:24:13;20.30;;;6.18;;
47772;SDS011;33534;51.028;13.716;2022-10-31T13:26:43;11.55;;;6.45;;
47772;SDS011;33534;51.028;13.716;2022-10-31T13:31:42;12.70;;;5.95;;
47772;SDS011;33534;51.028;13.716;2022-10-31T13:34:19;13.18;;;6.00;;
47772;SDS011;33534;51.028;13.716;2022-10-31T13:37:03;15.20;;;6.20;;
47772;SDS011;33534;51.028;13.716;2022-10-31T13:42:03;15.38;;;6.07;;
47772;SDS011;33534;51.028;13.716;2022-10-31T13:44:32;16.30;;;6.63;;
47772;SDS011;33534;51.028;13.716;2022-10-31T13:47:02;12.43;;;6.30;;
47772;SDS011;33534;51.028;13.716;2022-10-31T13:54:36;13.48;;;6.00;;
47772;SDS011;33534;51.028;13.716;2022-10-31T13:57:06;13.00;;;7.03;;
47772;SDS011;33534;51.028;13.716;2022-10-31T13:59:32;66.55;;;37.50;;
47772;SDS011;33534;51.028;13.716;2022-10-31T14:02:01;38.78;;;21.58;;
47772;SDS011;33534;51.028;13.716;2022-10-31T14:04:46;40.60;;;20.88;;
47772;SDS011;33534;51.028;13.716;2022-10-31T14:07:14;24.73;;;12.77;;
47772;SDS011;33534;51.028;13.716;2022-10-31T14:12:23;25.90;;;16.08;;
47772;SDS011;33534;51.028;13.716;2022-10-31T14:14:51;22.15;;;11.30;;
47772;SDS011;33534;51.028;13.716;2022-10-31T14:17:25;33.65;;;19.58;;
47772;SDS011;33534;51.028;13.716;2022-10-31T14:19:56;12.15;;;6.13;;
47772;SDS011;33534;51.028;13.716;2022-10-31T14:22:22;18.83;;;8.55;;
47772;SDS011;33534;51.028;13.716;2022-10-31T14:24:48;29.50;;;17.83;;
47772;SDS011;33534;51.028;13.716;2022-10-31T14:29:50;25.45;;;12.35;;
47772;SDS011;33534;51.028;13.716;2022-10-31T14:32:23;16.50;;;9.45;;
47772;SDS011;33534;51.028;13.716;2022-10-31T14:40:06;14.13;;;7.00;;
47772;SDS011;33534;51.028;13.716;2022-10-31T14:53:01;17.27;;;7.20;;
47772;SDS011;33534;51.028;13.716;2022-10-31T14:55:29;16.88;;;7.55;;
47772;SDS011;33534;51.028;13.716;2022-10-31T15:00:21;15.75;;;6.68;;
47772;SDS011;33534;51.028;13.716;2022-10-31T15:02:55;14.60;;;7.63;;
47772;SDS011;33534;51.028;13.716;2022-10-31T15:05:23;16.10;;;7.22;;
47772;SDS011;33534;51.028;13.716;2022-10-31T15:07:52;18.77;;;8.13;;
47772;SDS011;33534;51.028;13.716;2022-10-31T15:10:29;20.25;;;8.07;;
47772;SDS011;33534;51.028;13.716;2022-10-31T15:13:08;16.17;;;8.23;;
47772;SDS011;33534;51.028;13.716;2022-10-31T15:15:34;19.98;;;8.13;;
47772;SDS011;33534;51.028;13.716;2022-10-31T15:18:00;20.35;;;8.27;;
47772;SDS011;33534;51.028;13.716;2022-10-31T15:20:35;19.98;;;8.60;;
47772;SDS011;33534;51.028;13.716;2022-10-31T15:23:03;16.35;;;7.68;;
47772;SDS011;33534;51.028;13.716;2022-10-31T15:25:30;12.80;;;6.40;;
47772;SDS011;33534;51.028;13.716;2022-10-31T15:27:57;11.75;;;7.03;;
47772;SDS011;33534;51.028;13.716;2022-10-31T15:30:25;18.25;;;7.25;;
47772;SDS011;33534;51.028;13.716;2022-10-31T15:32:51;15.90;;;7.10;;
47772;SDS011;33534;51.028;13.716;2022-10-31T15:35:19;12.32;;;7.07;;
47772;SDS011;33534;51.028;13.716;2022-10-31T15:37:46;13.95;;;7.28;;
47772;SDS011;33534;51.028;13.716;2022-10-31T15:40:16;20.88;;;7.80;;
47772;SDS011;33534;51.028;13.716;2022-10-31T15:42:43;15.43;;;8.15;;
47772;SDS011;33534;51.028;13.716;2022-10-31T15:47:36;12.23;;;7.85;;
47772;SDS011;33534;51.028;13.716;2022-10-31T15:50:03;16.92;;;8.30;;
47772;SDS011;33534;51.028;13.716;2022-10-31T15:54:57;19.25;;;8.88;;
47772;SDS011;33534;51.028;13.716;2022-10-31T15:57:24;16.17;;;8.77;;
47772;SDS011;33534;51.028;13.716;2022-10-31T15:59:51;24.42;;;9.55;;
47772;SDS011;33534;51.028;13.716;2022-10-31T16:02:19;16.67;;;9.77;;
47772;SDS011;33534;51.028;13.716;2022-10-31T16:04:49;18.83;;;9.27;;
47772;SDS011;33534;51.028;13.716;2022-10-31T16:07:17;19.40;;;10.38;;
47772;SDS011;33534;51.028;13.716;2022-10-31T16:12:15;28.58;;;11.70;;
47772;SDS011;33534;51.028;13.716;2022-10-31T16:14:44;23.35;;;11.75;;
47772;SDS011;33534;51.028;13.716;2022-10-31T16:17:11;24.25;;;12.15;;
47772;SDS011;33534;51.028;13.716;2022-10-31T16:19:43;20.55;;;11.73;;
47772;SDS011;33534;51.028;13.716;2022-10-31T16:22:12;19.73;;;12.38;;
47772;SDS011;33534;51.028;13.716;2022-10-31T16:25:01;29.08;;;12.70;;
47772;SDS011;33534;51.028;13.716;2022-10-31T16:27:26;20.48;;;11.18;;
47772;SDS011;33534;51.028;13.716;2022-10-31T16:29:54;25.83;;;12.20;;
47772;SDS011;33534;51.028;13.716;2022-10-31T16:37:40;29.92;;;20.33;;
47772;SDS011;33534;51.028;13.716;2022-10-31T16:40:15;32.47;;;22.60;;
47772;SDS011;33534;51.028;13.716;2022-10-31T16:42:41;29.40;;;17.95;;
47772;SDS011;33534;51.028;13.716;2022-10-31T16:47:51;29.17;;;17.95;;
47772;SDS011;33534;51.028;13.716;2022-10-31T17:02:17;29.08;;;17.33;;
47772;SDS011;33534;51.028;13.716;2022-10-31T17:07:44;29.00;;;17.75;;
47772;SDS011;33534;51.028;13.716;2022-10-31T17:16:41;26.63;;;16.98;;
47772;SDS011;33534;51.028;13.716;2022-10-31T17:19:31;22.53;;;14.43;;
47772;SDS011;33534;51.028;13.716;2022-10-31T17:25:28;30.55;;;15.80;;
47772;SDS011;33534;51.028;13.716;2022-10-31T17:30:58;28.60;;;17.02;;
47772;SDS011;33534;51.028;13.716;2022-10-31T17:33:25;26.65;;;16.35;;
47772;SDS011;33534;51.028;13.716;2022-10-31T17:35:51;26.02;;;17.17;;
47772;SDS011;33534;51.028;13.716;2022-10-31T17:38:20;29.23;;;17.70;;
47772;SDS011;33534;51.028;13.716;2022-10-31T17:40:49;25.33;;;16.75;;
47772;SDS011;33534;51.028;13.716;2022-10-31T17:43:15;30.60;;;17.88;;
47772;SDS011;33534;51.028;13.716;2022-10-31T17:45:41;34.70;;;20.05;;
47772;SDS011;33534;51.028;13.716;2022-10-31T17:48:08;28.15;;;20.17;;
47772;SDS011;33534;51.028;13.716;2022-10-31T17:50:36;30.77;;;21.13;;
47772;SDS011;33534;51.028;13.716;2022-10-31T17:53:02;28.67;;;19.83;;
47772;SDS011;33534;51.028;13.716;2022-10-31T17:55:28;27.65;;;19.85;;
47772;SDS011;33534;51.028;13.716;2022-10-31T17:57:54;36.28;;;25.98;;
47772;SDS011;33534;51.028;13.716;2022-10-31T18:00:22;36.17;;;22.33;;
47772;SDS011;33534;51.028;13.716;2022-10-31T18:02:49;30.80;;;20.90;;